createdAt,value
2023-07-07T00:02:28.649Z,5.18
2023-07-07T00:05:00.048Z,5.07
2023-07-07T00:07:29.733Z,5.22
2023-07-07T00:09:59.404Z,5.22
2023-07-07T00:12:31.404Z,5.53
2023-07-07T00:15:03.847Z,5.60
2023-07-07T00:17:33.582Z,5.47
2023-07-07T00:20:09.385Z,5.70
2023-07-07T00:22:39.390Z,5.25
2023-07-07T00:25:11.616Z,5.32
2023-07-07T00:27:43.306Z,6.03
2023-07-07T00:30:16.384Z,5.85
2023-07-07T00:32:46.322Z,5.40
2023-07-07T00:35:16.034Z,5.65
2023-07-07T00:37:47.134Z,5.65
2023-07-07T00:40:17.295Z,5.90
2023-07-07T00:42:46.952Z,5.13
2023-07-07T00:45:22.549Z,5.13
2023-07-07T00:48:01.224Z,5.72
2023-07-07T00:50:35.009Z,5.22
2023-07-07T00:53:05.028Z,5.53
2023-07-07T00:55:40.591Z,5.50
2023-07-07T01:00:51.262Z,6.78
2023-07-07T01:03:26.430Z,7.78
2023-07-07T01:06:00.328Z,8.25
2023-07-07T01:08:30.668Z,6.20
2023-07-07T01:11:00.341Z,6.90
2023-07-07T01:13:30.715Z,6.18
2023-07-07T01:16:12.621Z,5.22
2023-07-07T01:18:51.543Z,5.53
2023-07-07T01:21:31.204Z,6.72
2023-07-07T01:24:36.804Z,6.20
2023-07-07T01:27:28.216Z,5.55
2023-07-07T01:30:19.862Z,5.43
2023-07-07T01:32:52.696Z,5.82
2023-07-07T01:35:24.488Z,5.80
2023-07-07T01:37:55.916Z,5.88
2023-07-07T01:40:29.362Z,6.43
2023-07-07T01:43:06.086Z,5.57
2023-07-07T01:45:44.117Z,6.30
2023-07-07T01:48:26.699Z,5.70
2023-07-07T01:50:57.192Z,5.53
2023-07-07T01:53:30.362Z,6.60
2023-07-07T01:56:02.608Z,6.18
2023-07-07T01:58:35.544Z,6.07
2023-07-07T02:01:06.296Z,6.10
2023-07-07T02:03:38.600Z,5.20
2023-07-07T02:06:08.290Z,5.32
2023-07-07T02:08:39.298Z,5.60
2023-07-07T02:11:09.103Z,5.55
2023-07-07T02:13:40.040Z,5.60
2023-07-07T02:16:11.336Z,5.60
2023-07-07T02:18:50.166Z,5.47
2023-07-07T02:21:20.405Z,5.60
2023-07-07T02:23:50.040Z,5.55
2023-07-07T02:26:20.566Z,6.63
2023-07-07T02:28:51.709Z,6.03
2023-07-07T02:31:25.957Z,5.35
2023-07-07T02:33:58.240Z,5.68
2023-07-07T02:36:28.640Z,5.55
2023-07-07T02:38:55.783Z,5.70
2023-07-07T02:41:25.762Z,5.97
2023-07-07T02:43:55.507Z,5.43
2023-07-07T02:46:25.390Z,5.75
2023-07-07T02:48:55.364Z,5.78
2023-07-07T02:51:27.721Z,5.50
2023-07-07T02:53:57.768Z,5.50
2023-07-07T02:56:28.185Z,5.18
2023-07-07T02:58:57.999Z,5.25
2023-07-07T03:01:27.774Z,5.80
2023-07-07T03:03:58.554Z,5.50
2023-07-07T03:06:31.287Z,6.05
2023-07-07T03:09:01.230Z,5.80
2023-07-07T03:11:32.438Z,5.32
2023-07-07T03:14:02.468Z,5.47
2023-07-07T03:16:36.544Z,5.22
2023-07-07T03:19:08.403Z,6.13
2023-07-07T03:21:41.215Z,5.63
2023-07-07T03:24:11.592Z,6.45
2023-07-07T03:26:41.223Z,5.70
2023-07-07T03:29:10.975Z,5.47
2023-07-07T03:31:40.760Z,5.18
2023-07-07T03:34:10.859Z,5.63
2023-07-07T03:36:43.590Z,5.72
2023-07-07T03:39:13.522Z,5.55
2023-07-07T03:41:43.217Z,5.30
2023-07-07T03:44:14.237Z,4.80
2023-07-07T03:46:43.933Z,4.80
2023-07-07T03:49:13.688Z,5.57
2023-07-07T03:51:45.980Z,5.10
2023-07-07T03:54:16.074Z,5.80
2023-07-07T03:56:45.759Z,5.25
2023-07-07T03:59:15.519Z,5.45
2023-07-07T04:01:45.170Z,5.05
2023-07-07T04:04:15.011Z,5.65
2023-07-07T04:06:50.397Z,4.93
2023-07-07T04:09:20.152Z,5.50
2023-07-07T04:11:49.803Z,5.30
2023-07-07T04:14:20.093Z,4.82
2023-07-07T04:16:49.842Z,4.78
2023-07-07T04:19:19.606Z,5.32
2023-07-07T04:21:51.885Z,5.68
2023-07-07T04:24:24.169Z,5.10
2023-07-07T04:26:53.884Z,5.20
2023-07-07T04:29:23.956Z,5.50
2023-07-07T04:31:55.676Z,5.60
2023-07-07T04:34:25.430Z,5.15
2023-07-07T04:36:57.804Z,5.32
2023-07-07T04:39:27.603Z,5.18
2023-07-07T04:41:57.262Z,5.15
2023-07-07T04:44:26.850Z,5.10
2023-07-07T04:46:56.506Z,4.60
2023-07-07T04:49:26.144Z,5.00
2023-07-07T04:51:58.411Z,4.88
2023-07-07T04:54:28.126Z,5.15
2023-07-07T04:56:57.906Z,4.70
2023-07-07T04:59:27.750Z,4.75
2023-07-07T05:01:57.510Z,5.30
2023-07-07T05:04:28.119Z,4.85
2023-07-07T05:07:00.360Z,5.63
2023-07-07T05:09:30.308Z,5.03
2023-07-07T05:12:01.854Z,4.80
2023-07-07T05:14:31.808Z,5.07
2023-07-07T05:17:03.370Z,4.60
2023-07-07T05:19:33.069Z,5.03
2023-07-07T05:22:05.366Z,4.65
2023-07-07T05:24:36.396Z,4.80
2023-07-07T05:27:08.687Z,4.72
2023-07-07T05:29:38.363Z,4.80
2023-07-07T05:32:09.201Z,4.97
2023-07-07T05:34:38.819Z,4.40
2023-07-07T05:37:12.072Z,4.50
2023-07-07T05:39:41.692Z,4.68
2023-07-07T05:42:11.342Z,4.60
2023-07-07T05:44:41.054Z,4.40
2023-07-07T05:47:10.835Z,4.65
2023-07-07T05:49:40.648Z,4.45
2023-07-07T05:52:15.729Z,4.47
2023-07-07T05:54:45.485Z,4.65
2023-07-07T05:57:15.125Z,4.60
2023-07-07T05:59:45.793Z,4.22
2023-07-07T06:02:15.459Z,4.45
2023-07-07T06:04:45.232Z,5.05
2023-07-07T06:07:17.480Z,4.20
2023-07-07T06:09:59.396Z,4.45
2023-07-07T06:12:29.352Z,4.45
2023-07-07T06:14:59.000Z,4.20
2023-07-07T06:17:28.764Z,4.22
2023-07-07T06:19:59.872Z,3.95
2023-07-07T06:22:32.122Z,3.88
2023-07-07T06:25:02.696Z,4.07
2023-07-07T06:27:32.552Z,3.80
2023-07-07T06:30:02.217Z,3.90
2023-07-07T06:32:31.864Z,4.10
2023-07-07T06:35:01.495Z,4.25
2023-07-07T06:37:33.662Z,4.05
2023-07-07T06:40:03.269Z,3.72
2023-07-07T06:42:32.925Z,3.40
2023-07-07T06:45:02.498Z,3.80
2023-07-07T06:47:32.216Z,3.95
2023-07-07T06:50:01.838Z,4.05
2023-07-07T06:52:34.179Z,3.90
2023-07-07T06:55:04.323Z,4.25
2023-07-07T06:57:33.973Z,3.40
2023-07-07T07:00:03.646Z,4.18
2023-07-07T07:02:33.333Z,3.80
2023-07-07T07:05:02.999Z,3.83
2023-07-07T07:07:35.736Z,3.55
2023-07-07T07:10:06.343Z,3.90
2023-07-07T07:12:36.561Z,3.75
2023-07-07T07:15:06.240Z,4.05
2023-07-07T07:17:36.592Z,3.92
2023-07-07T07:20:07.236Z,3.80
2023-07-07T07:22:39.553Z,4.00
2023-07-07T07:25:10.555Z,3.70
2023-07-07T07:27:40.469Z,3.92
2023-07-07T07:30:13.662Z,3.70
2023-07-07T07:32:43.994Z,3.90
2023-07-07T07:35:14.163Z,3.75
2023-07-07T07:37:46.379Z,3.35
2023-07-07T07:40:17.467Z,3.75
2023-07-07T07:42:47.059Z,3.95
2023-07-07T07:45:21.253Z,3.60
2023-07-07T07:47:51.486Z,3.40
2023-07-07T07:50:21.460Z,3.60
2023-07-07T07:52:53.738Z,3.50
2023-07-07T07:55:23.581Z,3.55
2023-07-07T07:57:53.167Z,3.42
2023-07-07T08:00:23.197Z,3.90
2023-07-07T08:02:53.119Z,3.50
2023-07-07T08:05:22.952Z,3.67
2023-07-07T08:07:55.224Z,3.60
2023-07-07T08:10:24.851Z,3.35
2023-07-07T08:12:54.555Z,3.40
2023-07-07T08:15:24.190Z,3.70
2023-07-07T08:17:53.825Z,3.30
2023-07-07T08:20:25.054Z,3.30
2023-07-07T08:22:57.658Z,3.20
2023-07-07T08:25:28.785Z,3.28
2023-07-07T08:30:31.799Z,3.50
2023-07-07T08:33:01.467Z,3.70
2023-07-07T08:35:31.121Z,3.65
2023-07-07T08:38:03.805Z,3.60
2023-07-07T08:40:41.752Z,3.58
2023-07-07T08:43:12.678Z,3.50
2023-07-07T08:45:46.626Z,3.28
2023-07-07T08:48:25.611Z,3.47
2023-07-07T08:51:00.307Z,3.40
2023-07-07T08:56:39.299Z,3.50
2023-07-07T08:59:20.752Z,3.30
2023-07-07T09:01:57.737Z,3.45
2023-07-07T09:04:39.649Z,3.60
2023-07-07T09:07:27.716Z,3.50
2023-07-07T09:10:22.036Z,3.30
2023-07-07T09:12:56.865Z,3.38
2023-07-07T09:15:30.150Z,3.58
2023-07-07T09:18:06.391Z,3.50
2023-07-07T09:20:39.603Z,3.33
2023-07-07T09:23:14.818Z,3.50
2023-07-07T09:28:21.426Z,3.50
2023-07-07T09:30:54.705Z,3.40
2023-07-07T09:33:26.518Z,3.15
2023-07-07T09:36:05.338Z,3.55
2023-07-07T09:38:49.273Z,3.75
2023-07-07T09:41:29.506Z,3.25
2023-07-07T09:44:14.732Z,3.03
2023-07-07T09:46:51.378Z,3.10
2023-07-07T09:49:27.735Z,3.00
2023-07-07T09:52:02.812Z,3.03
2023-07-07T09:54:34.550Z,3.15
2023-07-07T09:57:15.240Z,3.00
2023-07-07T09:59:50.990Z,3.10
2023-07-07T10:02:24.519Z,3.38
2023-07-07T10:05:00.936Z,2.80
2023-07-07T10:07:35.184Z,3.00
2023-07-07T10:10:06.936Z,3.33
2023-07-07T10:12:43.135Z,3.38
2023-07-07T10:15:32.366Z,3.22
2023-07-07T10:18:10.782Z,3.00
2023-07-07T10:20:40.504Z,3.10
2023-07-07T10:23:13.683Z,3.30
2023-07-07T10:25:44.341Z,2.80
2023-07-07T10:28:21.045Z,3.38
2023-07-07T10:30:52.252Z,3.10
2023-07-07T10:33:24.166Z,3.10
2023-07-07T10:35:54.909Z,3.20
2023-07-07T10:38:30.244Z,3.17
2023-07-07T10:41:02.176Z,3.13
2023-07-07T10:43:34.613Z,2.90
2023-07-07T10:46:04.585Z,3.03
2023-07-07T10:48:34.249Z,3.25
2023-07-07T10:51:12.069Z,2.90
2023-07-07T10:53:51.078Z,2.95
2023-07-07T10:56:31.347Z,2.90
2023-07-07T10:59:32.200Z,3.20
2023-07-07T11:02:20.681Z,3.10
2023-07-07T11:05:23.320Z,3.03
2023-07-07T11:08:02.799Z,3.45
2023-07-07T11:10:50.010Z,3.03
2023-07-07T11:13:31.421Z,3.00
2023-07-07T11:16:19.490Z,3.47
2023-07-07T11:19:07.597Z,3.20
2023-07-07T11:21:46.314Z,3.25
2023-07-07T11:24:35.879Z,3.20
2023-07-07T11:27:32.115Z,3.22
2023-07-07T11:30:11.323Z,3.20
2023-07-07T11:32:55.046Z,3.30
2023-07-07T11:35:39.536Z,3.22
2023-07-07T11:38:30.413Z,3.53
2023-07-07T11:41:02.970Z,3.30
2023-07-07T11:43:46.681Z,3.28
2023-07-07T11:46:31.961Z,3.08
2023-07-07T11:49:24.141Z,3.08
2023-07-07T11:52:06.825Z,2.90
2023-07-07T11:54:50.510Z,3.13
2023-07-07T11:57:43.360Z,3.13
2023-07-07T12:00:30.230Z,2.97
2023-07-07T12:03:11.079Z,2.85
2023-07-07T12:05:46.283Z,3.10
2023-07-07T12:10:51.913Z,3.50
2023-07-07T12:13:26.869Z,3.25
2023-07-07T12:16:02.413Z,3.00
2023-07-07T12:21:14.757Z,3.00
2023-07-07T12:23:50.403Z,3.40
2023-07-07T12:26:23.759Z,3.10
2023-07-07T12:28:57.872Z,3.22
2023-07-07T12:31:30.601Z,3.08
2023-07-07T12:34:00.622Z,3.20
2023-07-07T12:36:33.090Z,3.15
2023-07-07T12:39:04.395Z,3.20
2023-07-07T12:41:34.063Z,3.10
2023-07-07T12:44:07.567Z,2.90
2023-07-07T12:46:38.808Z,2.78
2023-07-07T12:49:11.059Z,3.40
2023-07-07T12:51:43.287Z,3.03
2023-07-07T12:54:32.067Z,3.00
2023-07-07T12:57:03.905Z,2.90
2023-07-07T12:59:40.950Z,3.10
2023-07-07T13:02:20.781Z,3.08
2023-07-07T13:04:55.799Z,3.00
2023-07-07T13:07:32.754Z,3.10
2023-07-07T13:10:04.009Z,3.20
2023-07-07T13:12:50.068Z,3.13
2023-07-07T13:15:25.108Z,2.95
2023-07-07T13:20:33.293Z,3.20
2023-07-07T13:23:10.333Z,3.00
2023-07-07T13:25:40.088Z,3.15
2023-07-07T13:28:15.407Z,3.10
2023-07-07T13:30:46.531Z,2.92
2023-07-07T13:33:18.728Z,3.30
2023-07-07T13:35:51.449Z,3.13
2023-07-07T13:38:26.467Z,3.22
2023-07-07T13:40:56.968Z,2.90
2023-07-07T13:43:32.474Z,3.50
2023-07-07T13:46:08.384Z,3.10
2023-07-07T13:48:45.074Z,2.97
2023-07-07T13:51:16.682Z,2.85
2023-07-07T13:53:49.492Z,3.05
2023-07-07T13:56:19.319Z,3.38
2023-07-07T14:01:30.095Z,2.97
2023-07-07T14:04:03.833Z,3.75
2023-07-07T14:06:36.432Z,3.10
2023-07-07T14:09:23.324Z,2.97
2023-07-07T14:11:57.905Z,3.22
2023-07-07T14:14:28.061Z,3.47
2023-07-07T14:17:03.004Z,3.10
2023-07-07T14:19:37.113Z,2.95
2023-07-07T14:22:09.053Z,3.08
2023-07-07T14:24:41.752Z,3.00
2023-07-07T14:27:16.927Z,3.22
2023-07-07T14:29:47.991Z,3.17
2023-07-07T14:32:22.606Z,3.30
2023-07-07T14:34:53.992Z,2.90
2023-07-07T14:37:27.097Z,3.30
2023-07-07T14:40:01.591Z,3.10
2023-07-07T14:42:32.205Z,2.87
2023-07-07T14:45:01.896Z,3.13
2023-07-07T14:47:33.608Z,3.33
2023-07-07T14:50:06.138Z,3.17
2023-07-07T14:52:41.030Z,2.92
2023-07-07T14:55:18.236Z,2.88
2023-07-07T14:57:50.545Z,2.88
2023-07-07T15:00:34.658Z,3.30
2023-07-07T15:03:04.559Z,3.00
2023-07-07T15:05:36.240Z,2.90
2023-07-07T15:08:13.711Z,3.13
2023-07-07T15:10:46.995Z,3.08
2023-07-07T15:13:20.939Z,3.50
2023-07-07T15:15:51.816Z,3.10
2023-07-07T15:18:21.832Z,3.00
2023-07-07T15:20:51.452Z,3.42
2023-07-07T15:23:21.221Z,3.03
2023-07-07T15:25:54.194Z,3.10
2023-07-07T15:28:23.880Z,3.20
2023-07-07T15:30:53.621Z,3.28
2023-07-07T15:33:23.223Z,3.40
2023-07-07T15:35:52.883Z,3.30
2023-07-07T15:38:50.937Z,3.10
2023-07-07T15:41:25.025Z,3.15
2023-07-07T15:43:55.102Z,3.20
2023-07-07T15:46:32.294Z,3.33
2023-07-07T15:49:02.054Z,2.90
2023-07-07T15:51:36.851Z,2.90
2023-07-07T15:54:09.394Z,2.95
2023-07-07T15:56:43.477Z,3.03
2023-07-07T15:59:18.407Z,3.10
2023-07-07T16:01:49.351Z,2.97
2023-07-07T16:04:19.174Z,3.38
2023-07-07T16:06:49.376Z,3.10
2023-07-07T16:09:20.830Z,3.03
2023-07-07T16:11:53.135Z,3.13
2023-07-07T16:14:22.778Z,3.25
2023-07-07T16:16:52.456Z,3.22
2023-07-07T16:19:22.230Z,2.90
2023-07-07T16:21:52.337Z,2.97
2023-07-07T16:24:21.962Z,3.17
2023-07-07T16:26:54.145Z,3.30
2023-07-07T16:29:23.815Z,2.83
2023-07-07T16:31:53.447Z,3.00
2023-07-07T16:34:23.069Z,2.75
2023-07-07T16:36:52.781Z,3.17
2023-07-07T16:39:28.018Z,3.13
2023-07-07T16:42:02.434Z,3.05
2023-07-07T16:44:34.955Z,2.92
2023-07-07T16:47:04.568Z,3.10
2023-07-07T16:49:34.230Z,2.90
2023-07-07T16:52:03.847Z,3.92
2023-07-07T16:54:33.954Z,3.40
2023-07-07T16:57:07.174Z,3.15
2023-07-07T16:59:36.780Z,3.50
2023-07-07T17:02:06.516Z,3.10
2023-07-07T17:04:36.159Z,3.17
2023-07-07T17:07:05.769Z,3.08
2023-07-07T17:09:35.408Z,3.13
2023-07-07T17:12:12.950Z,3.22
2023-07-07T17:14:42.745Z,3.20
2023-07-07T17:17:15.321Z,2.85
2023-07-07T17:19:45.010Z,3.15
2023-07-07T17:22:14.700Z,2.97
2023-07-07T17:24:44.336Z,3.03
2023-07-07T17:27:16.540Z,3.45
2023-07-07T17:29:46.227Z,3.40
2023-07-07T17:32:16.066Z,3.47
2023-07-07T17:34:45.691Z,3.08
2023-07-07T17:37:15.329Z,3.17
2023-07-07T17:39:44.958Z,3.10
2023-07-07T17:42:19.311Z,3.30
2023-07-07T17:44:50.147Z,3.03
2023-07-07T17:47:19.810Z,3.17
2023-07-07T17:49:49.424Z,3.13
2023-07-07T17:52:19.435Z,3.17
2023-07-07T17:54:49.063Z,3.20
2023-07-07T17:57:22.943Z,3.05
2023-07-07T17:59:52.888Z,3.00
2023-07-07T18:02:22.526Z,3.13
2023-07-07T18:04:52.288Z,2.90
2023-07-07T18:07:21.937Z,2.90
2023-07-07T18:09:51.516Z,2.88
2023-07-07T18:12:23.819Z,3.20
2023-07-07T18:14:53.386Z,3.20
2023-07-07T18:17:31.066Z,3.00
2023-07-07T18:20:13.296Z,2.80
2023-07-07T18:22:53.364Z,3.10
2023-07-07T18:25:23.314Z,2.90
2023-07-07T18:27:55.872Z,3.40
2023-07-07T18:30:38.304Z,3.13
2023-07-07T18:33:08.012Z,3.17
2023-07-07T18:35:40.447Z,3.00
2023-07-07T18:38:17.411Z,3.28
2023-07-07T18:40:47.086Z,3.63
2023-07-07T18:43:20.087Z,3.53
2023-07-07T18:45:50.464Z,3.63
2023-07-07T18:48:20.241Z,3.58
2023-07-07T18:50:51.778Z,3.45
2023-07-07T18:53:21.347Z,3.58
2023-07-07T18:55:50.982Z,3.75
2023-07-07T18:58:23.212Z,3.70
2023-07-07T19:00:53.331Z,3.55
2023-07-07T19:03:22.943Z,3.35
2023-07-07T19:05:52.584Z,3.50
2023-07-07T19:08:23.917Z,3.28
2023-07-07T19:10:53.473Z,3.75
2023-07-07T19:13:25.958Z,3.70
2023-07-07T19:15:57.543Z,3.20
2023-07-07T19:18:36.603Z,3.70
2023-07-07T19:21:06.418Z,3.90
2023-07-07T19:23:36.038Z,3.60
2023-07-07T19:26:12.416Z,3.40
2023-07-07T19:28:44.938Z,3.50
2023-07-07T19:31:15.486Z,4.25
2023-07-07T19:33:45.145Z,3.50
2023-07-07T19:36:19.893Z,3.60
2023-07-07T19:38:52.836Z,5.18
2023-07-07T19:41:24.307Z,6.00
2023-07-07T19:43:57.038Z,7.72
2023-07-07T19:46:29.102Z,5.18
2023-07-07T19:49:00.216Z,4.05
2023-07-07T19:51:31.866Z,4.28
2023-07-07T19:54:03.300Z,4.72
2023-07-07T19:56:32.927Z,5.03
2023-07-07T19:59:05.120Z,5.55
2023-07-07T20:01:35.912Z,5.93
2023-07-07T20:04:05.600Z,6.20
2023-07-07T20:06:40.371Z,7.60
2023-07-07T20:09:17.611Z,7.22
2023-07-07T20:11:48.390Z,7.85
2023-07-07T20:14:20.754Z,6.43
2023-07-07T20:16:52.750Z,6.97
2023-07-07T20:19:24.304Z,8.20
2023-07-07T20:21:55.144Z,5.53
2023-07-07T20:24:26.803Z,4.97
2023-07-07T20:27:04.214Z,5.70
2023-07-07T20:29:36.571Z,4.88
2023-07-07T20:32:15.031Z,4.57
2023-07-07T20:34:46.870Z,4.30
2023-07-07T20:37:17.116Z,4.03
2023-07-07T20:39:46.755Z,4.50
2023-07-07T20:42:18.127Z,5.00
2023-07-07T20:44:50.496Z,4.25
2023-07-07T20:47:20.104Z,4.47
2023-07-07T20:49:49.898Z,4.22
2023-07-07T20:52:19.482Z,4.03
2023-07-07T20:54:49.035Z,4.55
2023-07-07T20:57:20.384Z,6.35
2023-07-07T20:59:52.839Z,4.35
2023-07-07T21:02:25.660Z,4.45
2023-07-07T21:04:55.279Z,5.63
2023-07-07T21:07:24.883Z,4.70
2023-07-07T21:09:54.459Z,5.13
2023-07-07T21:12:24.259Z,4.95
2023-07-07T21:14:56.489Z,4.90
2023-07-07T21:17:26.127Z,4.40
2023-07-07T21:19:55.811Z,4.55
2023-07-07T21:22:25.417Z,4.25
2023-07-07T21:24:55.064Z,4.25
2023-07-07T21:27:25.267Z,4.18
2023-07-07T21:29:57.578Z,4.65
2023-07-07T21:32:27.343Z,4.85
2023-07-07T21:34:56.978Z,4.63
2023-07-07T21:37:26.867Z,4.40
2023-07-07T21:39:56.497Z,5.07
2023-07-07T21:42:26.147Z,5.03
2023-07-07T21:44:58.390Z,6.15
2023-07-07T21:47:28.014Z,7.18
2023-07-07T21:49:57.662Z,5.95
2023-07-07T21:52:27.326Z,5.82
2023-07-07T21:54:56.998Z,5.72
2023-07-07T21:57:43.982Z,5.78
2023-07-07T22:00:23.016Z,5.85
2023-07-07T22:02:56.286Z,6.18
2023-07-07T22:05:28.972Z,6.55
2023-07-07T22:07:59.209Z,5.97
2023-07-07T22:10:41.843Z,7.55
2023-07-07T22:13:12.628Z,6.97
2023-07-07T22:15:45.807Z,7.72
2023-07-07T22:18:17.316Z,6.30
2023-07-07T22:20:48.670Z,6.85
2023-07-07T22:23:18.346Z,6.22
2023-07-07T22:25:48.404Z,6.78
2023-07-07T22:28:24.545Z,6.45
2023-07-07T22:30:59.127Z,6.65
2023-07-07T22:33:30.796Z,6.75
2023-07-07T22:36:03.127Z,7.03
2023-07-07T22:38:32.904Z,6.90
2023-07-07T22:41:02.897Z,7.70
2023-07-07T22:43:32.864Z,6.38
2023-07-07T22:46:05.547Z,7.88
2023-07-07T22:48:35.187Z,7.38
2023-07-07T22:51:04.783Z,7.20
2023-07-07T22:53:34.475Z,7.50
2023-07-07T22:56:04.285Z,7.40
2023-07-07T22:58:33.893Z,7.57
2023-07-07T23:01:08.558Z,6.88
2023-07-07T23:03:38.287Z,6.85
2023-07-07T23:06:07.962Z,6.75
2023-07-07T23:08:37.627Z,6.97
2023-07-07T23:11:12.375Z,7.13
2023-07-07T23:13:42.085Z,7.25
2023-07-07T23:16:17.461Z,6.57
2023-07-07T23:18:47.958Z,7.55
2023-07-07T23:21:19.181Z,7.45
2023-07-07T23:23:49.518Z,6.88
2023-07-07T23:26:28.764Z,7.88
2023-07-07T23:28:58.800Z,7.15
2023-07-07T23:31:31.082Z,7.68
2023-07-07T23:34:00.766Z,7.32
2023-07-07T23:36:32.861Z,7.65
2023-07-07T23:39:03.093Z,7.40
2023-07-07T23:41:32.766Z,7.47
2023-07-07T23:44:02.374Z,7.75
2023-07-07T23:46:35.676Z,8.05
2023-07-07T23:49:05.536Z,7.88
2023-07-07T23:51:35.205Z,8.30
2023-07-07T23:54:04.818Z,8.13
2023-07-07T23:56:35.026Z,8.35
2023-07-07T23:59:04.644Z,8.15
